createdAt,value
2022-10-11T00:02:11.517Z,13.64
2022-10-11T00:04:38.561Z,13.79
2022-10-11T00:07:05.470Z,13.57
2022-10-11T00:09:32.442Z,13.70
2022-10-11T00:11:59.436Z,13.68
2022-10-11T00:14:27.664Z,13.78
2022-10-11T00:16:54.651Z,13.88
2022-10-11T00:19:22.096Z,13.93
2022-10-11T00:21:49.036Z,14.03
2022-10-11T00:24:16.918Z,13.96
2022-10-11T00:26:47.024Z,13.27
2022-10-11T00:29:14.561Z,13.26
2022-10-11T00:31:41.511Z,13.39
2022-10-11T00:34:10.234Z,13.70
2022-10-11T00:36:37.147Z,13.64
2022-10-11T00:39:04.981Z,13.78
2022-10-11T00:41:31.840Z,14.11
2022-10-11T00:44:14.968Z,14.07
2022-10-11T00:46:46.088Z,13.77
2022-10-11T00:49:26.174Z,13.77
2022-10-11T00:51:57.132Z,13.70
2022-10-11T00:54:27.134Z,13.74
2022-10-11T00:56:59.826Z,13.63
2022-10-11T00:59:30.959Z,13.38
2022-10-11T01:01:57.944Z,13.54
2022-10-11T01:04:24.890Z,13.71
2022-10-11T01:06:53.257Z,13.60
2022-10-11T01:09:21.395Z,13.67
2022-10-11T01:11:51.361Z,13.80
2022-10-11T01:14:38.259Z,13.45
2022-10-11T01:17:13.929Z,13.56
2022-10-11T01:20:32.073Z,13.81
2022-10-11T01:23:36.857Z,13.75
2022-10-11T01:26:16.098Z,13.43
2022-10-11T01:29:01.355Z,13.34
2022-10-11T01:31:43.605Z,13.54
2022-10-11T01:34:19.615Z,13.35
2022-10-11T01:37:13.518Z,13.21
2022-10-11T01:39:59.279Z,13.41
2022-10-11T01:42:27.279Z,13.36
2022-10-11T01:44:55.182Z,12.92
2022-10-11T01:47:23.615Z,13.34
2022-10-11T01:49:59.029Z,13.37
2022-10-11T01:52:29.193Z,13.34
2022-10-11T01:55:27.772Z,13.09
2022-10-11T01:58:14.318Z,12.52
2022-10-11T02:00:55.557Z,12.98
2022-10-11T02:03:47.192Z,13.09
2022-10-11T02:06:51.360Z,13.29
2022-10-11T02:09:29.668Z,13.02
2022-10-11T02:12:02.312Z,12.79
2022-10-11T02:14:35.644Z,12.75
2022-10-11T02:17:07.929Z,12.51
2022-10-11T02:19:39.595Z,12.36
2022-10-11T02:22:15.090Z,12.44
2022-10-11T02:24:47.161Z,12.27
2022-10-11T02:27:17.317Z,12.23
2022-10-11T02:29:45.369Z,12.75
2022-10-11T02:32:14.066Z,12.67
2022-10-11T02:34:47.605Z,12.51
2022-10-11T02:37:29.646Z,12.62
2022-10-11T02:40:02.381Z,12.81
2022-10-11T02:42:37.206Z,12.85
2022-10-11T02:45:14.873Z,12.99
2022-10-11T02:47:43.528Z,12.92
2022-10-11T02:50:14.645Z,13.03
2022-10-11T02:52:41.646Z,13.05
2022-10-11T02:55:09.097Z,13.20
2022-10-11T02:57:35.961Z,12.98
2022-10-11T03:00:03.970Z,12.43
2022-10-11T03:02:30.877Z,12.64
2022-10-11T03:04:57.758Z,12.85
2022-10-11T03:07:24.837Z,13.04
2022-10-11T03:09:51.718Z,12.60
2022-10-11T03:12:18.580Z,12.35
2022-10-11T03:14:45.536Z,12.59
2022-10-11T03:17:35.177Z,12.71
2022-10-11T03:19:59.343Z,12.51
2022-10-11T03:22:26.258Z,12.75
2022-10-11T03:24:53.199Z,12.76
2022-10-11T03:27:20.040Z,12.78
2022-10-11T03:29:46.898Z,12.98
2022-10-11T03:32:13.797Z,13.31
2022-10-11T03:34:40.657Z,13.55
2022-10-11T03:37:07.560Z,13.70
2022-10-11T03:39:34.669Z,13.21
2022-10-11T03:42:01.523Z,12.66
2022-10-11T03:44:28.393Z,12.49
2022-10-11T03:46:55.304Z,12.63
2022-10-11T03:49:22.215Z,12.88
2022-10-11T03:51:49.067Z,12.83
2022-10-11T03:54:16.083Z,12.68
2022-10-11T03:56:42.933Z,12.39
2022-10-11T03:59:10.743Z,12.25
2022-10-11T04:01:38.657Z,12.02
2022-10-11T04:04:06.014Z,11.91
2022-10-11T04:06:33.487Z,12.59
2022-10-11T04:09:00.514Z,12.48
2022-10-11T04:11:27.478Z,11.97
2022-10-11T04:13:54.376Z,12.12
2022-10-11T04:16:21.266Z,12.40
2022-10-11T04:18:48.181Z,12.56
2022-10-11T04:21:15.063Z,12.72
2022-10-11T04:23:41.962Z,12.60
2022-10-11T04:26:09.153Z,12.83
2022-10-11T04:28:36.376Z,13.03
2022-10-11T04:31:05.279Z,12.87
2022-10-11T04:33:32.413Z,12.90
2022-10-11T04:35:59.370Z,13.16
2022-10-11T04:38:26.205Z,13.35
2022-10-11T04:40:53.099Z,14.20
2022-10-11T04:43:20.121Z,15.19
2022-10-11T04:45:46.987Z,15.85
2022-10-11T04:48:14.320Z,17.26
2022-10-11T04:50:41.272Z,17.97
2022-10-11T04:53:08.382Z,18.49
2022-10-11T04:55:35.356Z,18.94
2022-10-11T04:58:02.319Z,19.07
2022-10-11T05:00:29.274Z,19.26
2022-10-11T05:02:56.336Z,20.45
2022-10-11T05:05:23.230Z,21.35
2022-10-11T05:07:50.110Z,21.79
2022-10-11T05:10:17.225Z,22.21
2022-10-11T05:12:44.325Z,23.47
2022-10-11T05:15:11.219Z,23.44
2022-10-11T05:17:38.187Z,23.92
2022-10-11T05:20:05.581Z,24.59
2022-10-11T05:22:32.502Z,25.40
2022-10-11T05:24:59.366Z,25.08
2022-10-11T05:27:26.261Z,23.53
2022-10-11T05:29:53.182Z,22.47
2022-10-11T05:32:20.091Z,21.59
2022-10-11T05:34:47.201Z,20.33
2022-10-11T05:37:14.114Z,20.77
2022-10-11T05:39:41.053Z,21.96
2022-10-11T05:42:10.053Z,23.20
2022-10-11T05:44:37.067Z,24.88
2022-10-11T05:47:04.001Z,25.83
2022-10-11T05:49:31.011Z,26.71
2022-10-11T05:51:57.988Z,25.31
2022-10-11T05:54:24.931Z,24.50
2022-10-11T05:56:51.828Z,25.35
2022-10-11T05:59:18.731Z,26.32
2022-10-11T06:01:45.703Z,26.11
2022-10-11T06:04:12.921Z,27.55
2022-10-11T06:06:39.846Z,29.25
2022-10-11T06:09:06.782Z,30.56
2022-10-11T06:11:34.214Z,30.81
2022-10-11T06:14:01.143Z,30.09
2022-10-11T06:16:28.175Z,29.04
2022-10-11T06:18:56.549Z,29.68
2022-10-11T06:21:24.589Z,29.92
2022-10-11T06:23:56.855Z,30.88
2022-10-11T06:26:26.991Z,31.84
2022-10-11T06:28:54.015Z,31.25
2022-10-11T06:31:20.990Z,30.83
2022-10-11T06:33:47.874Z,29.67
2022-10-11T06:36:17.034Z,29.21
2022-10-11T06:38:45.463Z,29.67
2022-10-11T06:41:33.015Z,28.33
2022-10-11T06:44:00.161Z,28.03
2022-10-11T06:46:28.129Z,29.05
2022-10-11T06:48:56.549Z,28.62
2022-10-11T06:51:23.811Z,27.42
2022-10-11T06:53:52.520Z,27.34
2022-10-11T06:56:19.885Z,27.20
2022-10-11T06:58:47.399Z,26.92
2022-10-11T07:01:20.759Z,28.03
2022-10-11T07:03:48.534Z,26.16
2022-10-11T07:06:21.951Z,25.47
2022-10-11T07:08:49.740Z,25.25
2022-10-11T07:11:19.265Z,24.90
2022-10-11T07:14:12.615Z,24.72
2022-10-11T07:16:39.570Z,23.23
2022-10-11T07:19:06.981Z,23.69
2022-10-11T07:21:35.164Z,22.73
2022-10-11T07:24:02.758Z,22.22
2022-10-11T07:26:35.287Z,22.63
2022-10-11T07:29:05.904Z,22.57
2022-10-11T07:31:33.059Z,22.53
2022-10-11T07:33:59.987Z,22.28
2022-10-11T07:36:45.578Z,22.21
2022-10-11T07:39:12.701Z,22.94
2022-10-11T07:41:44.618Z,22.60
2022-10-11T07:44:12.497Z,21.75
2022-10-11T07:46:39.504Z,22.67
2022-10-11T07:49:06.568Z,24.89
2022-10-11T07:51:33.541Z,23.61
2022-10-11T07:54:04.720Z,23.22
2022-10-11T07:56:33.852Z,23.73
2022-10-11T07:59:03.666Z,23.52
2022-10-11T08:01:31.660Z,21.99
2022-10-11T08:03:59.261Z,21.42
2022-10-11T08:06:31.707Z,22.25
2022-10-11T08:09:00.739Z,22.81
2022-10-11T08:11:34.254Z,21.97
2022-10-11T08:14:04.646Z,22.73
2022-10-11T08:16:31.567Z,23.51
2022-10-11T08:18:58.558Z,22.80
2022-10-11T08:21:26.970Z,23.41
2022-10-11T08:23:53.894Z,23.57
2022-10-11T08:26:21.268Z,22.38
2022-10-11T08:28:48.248Z,22.56
2022-10-11T08:31:16.317Z,21.31
2022-10-11T08:33:43.694Z,21.31
2022-10-11T08:36:11.764Z,21.03
2022-10-11T08:38:39.362Z,22.41
2022-10-11T08:41:27.853Z,21.60
2022-10-11T08:44:19.726Z,21.84
2022-10-11T08:46:53.233Z,23.05
2022-10-11T08:49:26.960Z,21.87
2022-10-11T08:52:02.773Z,21.67
2022-10-11T08:54:39.243Z,21.65
2022-10-11T08:57:10.171Z,21.39
2022-10-11T08:59:43.386Z,21.59
2022-10-11T09:02:25.701Z,21.68
2022-10-11T09:04:54.833Z,21.06
2022-10-11T09:07:49.963Z,20.53
2022-10-11T09:10:34.874Z,20.81
2022-10-11T09:13:07.948Z,20.98
2022-10-11T09:15:59.280Z,21.70
2022-10-11T09:19:01.623Z,20.86
2022-10-11T09:21:35.188Z,21.44
2022-10-11T09:24:20.834Z,22.91
2022-10-11T09:27:18.429Z,22.32
2022-10-11T09:30:02.753Z,22.21
2022-10-11T09:32:36.180Z,21.53
2022-10-11T09:35:14.034Z,22.20
2022-10-11T09:37:59.434Z,21.87
2022-10-11T09:40:44.823Z,21.27
2022-10-11T09:43:12.408Z,20.97
2022-10-11T09:45:49.272Z,21.40
2022-10-11T09:48:37.825Z,20.77
2022-10-11T09:51:21.228Z,21.41
2022-10-11T09:53:56.488Z,22.07
2022-10-11T09:56:25.488Z,23.31
2022-10-11T09:59:24.243Z,22.92
2022-10-11T10:02:16.773Z,22.54
2022-10-11T10:05:12.791Z,22.08
2022-10-11T10:07:41.277Z,21.96
2022-10-11T10:10:34.910Z,22.19
2022-10-11T10:13:06.055Z,22.59
2022-10-11T10:15:37.748Z,21.91
2022-10-11T10:18:10.618Z,21.46
2022-10-11T10:20:38.675Z,21.23
2022-10-11T10:23:19.501Z,22.32
2022-10-11T10:25:51.859Z,21.98
2022-10-11T10:28:24.152Z,22.12
2022-10-11T10:30:58.883Z,22.62
2022-10-11T10:33:31.331Z,23.04
2022-10-11T10:36:08.112Z,22.65
2022-10-11T10:38:43.138Z,23.15
2022-10-11T10:41:14.158Z,23.65
2022-10-11T10:43:43.638Z,23.22
2022-10-11T10:46:21.293Z,23.60
2022-10-11T10:49:41.259Z,23.02
2022-10-11T10:52:08.341Z,22.67
2022-10-11T10:55:00.468Z,22.40
2022-10-11T10:57:33.008Z,22.05
2022-10-11T11:00:09.981Z,23.52
2022-10-11T11:02:58.041Z,22.97
2022-10-11T11:05:51.805Z,23.51
2022-10-11T11:08:33.493Z,23.67
2022-10-11T11:11:06.433Z,23.22
2022-10-11T11:13:54.528Z,22.82
2022-10-11T11:16:39.066Z,22.17
2022-10-11T11:19:20.911Z,24.82
2022-10-11T11:22:14.827Z,26.11
2022-10-11T11:25:00.487Z,24.88
2022-10-11T11:28:06.423Z,23.19
2022-10-11T11:30:57.494Z,23.66
2022-10-11T11:33:49.657Z,24.00
2022-10-11T11:36:38.780Z,22.60
2022-10-11T11:39:11.616Z,20.99
2022-10-11T11:41:43.686Z,21.48
2022-10-11T11:44:27.483Z,20.46
2022-10-11T11:47:03.980Z,20.76
2022-10-11T11:49:54.293Z,20.37
2022-10-11T11:52:33.782Z,20.77
2022-10-11T11:55:33.562Z,20.50
2022-10-11T11:58:21.825Z,19.95
2022-10-11T12:01:05.562Z,19.72
2022-10-11T12:03:42.045Z,19.50
2022-10-11T12:06:14.739Z,19.13
2022-10-11T12:08:44.940Z,19.26
2022-10-11T12:11:25.616Z,18.96
2022-10-11T12:13:55.997Z,18.67
2022-10-11T12:16:23.565Z,18.57
2022-10-11T12:18:52.518Z,18.50
2022-10-11T12:21:26.498Z,18.50
2022-10-11T12:23:59.960Z,18.64
2022-10-11T12:26:29.887Z,18.79
2022-10-11T12:29:17.138Z,18.64
2022-10-11T12:32:28.729Z,19.00
2022-10-11T12:35:33.509Z,19.01
2022-10-11T12:38:15.548Z,19.51
2022-10-11T12:40:47.340Z,19.72
2022-10-11T12:43:14.324Z,19.21
2022-10-11T12:45:47.866Z,19.04
2022-10-11T12:49:03.927Z,19.03
2022-10-11T12:51:47.109Z,19.00
2022-10-11T12:54:41.935Z,18.67
2022-10-11T12:57:12.016Z,18.84
2022-10-11T12:59:45.189Z,18.70
2022-10-11T13:02:44.306Z,18.75
2022-10-11T13:05:45.063Z,18.96
2022-10-11T13:08:18.815Z,18.87
2022-10-11T13:10:47.458Z,19.04
2022-10-11T13:13:25.020Z,18.48
2022-10-11T13:15:56.806Z,18.51
2022-10-11T13:18:26.401Z,18.47
2022-10-11T13:20:53.361Z,18.41
2022-10-11T13:23:26.064Z,18.39
2022-10-11T13:25:54.038Z,18.53
2022-10-11T13:28:22.288Z,18.16
2022-10-11T13:30:53.518Z,18.08
2022-10-11T13:33:25.331Z,18.20
2022-10-11T13:35:52.970Z,18.00
2022-10-11T13:38:26.825Z,17.91
2022-10-11T13:40:56.105Z,17.80
2022-10-11T13:43:27.465Z,17.91
2022-10-11T13:45:55.897Z,18.24
2022-10-11T13:48:22.875Z,18.06
2022-10-11T13:51:17.077Z,17.71
2022-10-11T13:54:05.174Z,17.18
2022-10-11T13:56:37.661Z,17.11
2022-10-11T13:59:05.201Z,17.37
2022-10-11T14:01:45.305Z,17.25
2022-10-11T14:04:17.578Z,17.20
2022-10-11T14:06:56.586Z,16.95
2022-10-11T14:09:30.305Z,16.85
2022-10-11T14:12:28.352Z,16.82
2022-10-11T14:14:55.336Z,17.03
2022-10-11T14:17:37.451Z,16.98
2022-10-11T14:20:13.761Z,16.95
2022-10-11T14:22:40.653Z,16.92
2022-10-11T14:25:07.596Z,16.85
2022-10-11T14:27:34.892Z,16.89
2022-10-11T14:32:51.218Z,17.05
2022-10-11T14:35:21.596Z,17.18
2022-10-11T14:37:48.492Z,17.25
2022-10-11T14:40:22.726Z,17.05
2022-10-11T14:42:49.797Z,16.95
2022-10-11T14:45:17.825Z,16.69
2022-10-11T14:47:45.420Z,16.66
2022-10-11T14:50:39.407Z,16.79
2022-10-11T14:53:07.812Z,17.13
2022-10-11T14:55:39.096Z,17.12
2022-10-11T14:58:09.128Z,16.95
2022-10-11T15:00:36.820Z,16.76
2022-10-11T15:03:05.300Z,16.70
2022-10-11T15:05:34.229Z,16.69
2022-10-11T15:08:02.981Z,16.81
2022-10-11T15:10:36.231Z,16.91
2022-10-11T15:13:05.188Z,16.86
2022-10-11T15:15:35.481Z,16.70
2022-10-11T15:18:05.288Z,16.60
2022-10-11T15:20:41.759Z,16.59
2022-10-11T15:23:10.042Z,16.56
2022-10-11T15:25:39.282Z,16.71
2022-10-11T15:28:07.822Z,16.73
2022-10-11T15:30:40.972Z,16.68
2022-10-11T15:33:08.629Z,16.63
2022-10-11T15:35:35.706Z,16.60
2022-10-11T15:38:02.677Z,16.59
2022-10-11T15:40:35.558Z,16.75
2022-10-11T15:43:02.894Z,17.18
2022-10-11T15:45:30.073Z,17.03
2022-10-11T15:47:57.459Z,17.05
2022-10-11T15:50:39.283Z,17.19
2022-10-11T15:53:17.467Z,17.23
2022-10-11T15:55:46.925Z,17.20
2022-10-11T15:58:16.164Z,17.23
2022-10-11T16:00:44.790Z,17.60
2022-10-11T16:03:16.700Z,17.25
2022-10-11T16:05:44.287Z,16.91
2022-10-11T16:08:11.745Z,16.78
2022-10-11T16:10:39.648Z,16.55
2022-10-11T16:13:06.833Z,16.52
2022-10-11T16:15:35.078Z,16.69
2022-10-11T16:18:02.540Z,16.56
2022-10-11T16:20:29.504Z,16.62
2022-10-11T16:22:56.567Z,16.78
2022-10-11T16:25:23.989Z,16.87
2022-10-11T16:27:51.585Z,16.74
2022-10-11T16:30:20.252Z,17.00
2022-10-11T16:32:47.521Z,17.24
2022-10-11T16:35:16.293Z,17.41
2022-10-11T16:37:43.666Z,17.60
2022-10-11T16:40:12.083Z,17.33
2022-10-11T16:42:39.701Z,17.58
2022-10-11T16:45:07.125Z,17.51
2022-10-11T16:47:34.231Z,17.48
2022-10-11T16:50:01.157Z,17.55
2022-10-11T16:52:28.236Z,17.67
2022-10-11T16:54:55.432Z,17.93
2022-10-11T16:57:22.506Z,18.05
2022-10-11T16:59:49.534Z,18.24
2022-10-11T17:02:28.753Z,18.16
2022-10-11T17:04:59.221Z,18.40
2022-10-11T17:07:26.692Z,18.56
2022-10-11T17:09:53.758Z,18.56
2022-10-11T17:12:23.232Z,17.86
2022-10-11T17:14:50.725Z,17.75
2022-10-11T17:17:19.174Z,17.49
2022-10-11T17:19:47.703Z,17.44
2022-10-11T17:22:18.641Z,17.81
2022-10-11T17:24:46.020Z,18.15
2022-10-11T17:27:13.619Z,18.30
2022-10-11T17:29:40.554Z,18.22
2022-10-11T17:32:07.891Z,17.80
2022-10-11T17:34:35.078Z,17.81
2022-10-11T17:37:02.002Z,17.69
2022-10-11T17:39:29.087Z,17.75
2022-10-11T17:41:56.040Z,17.79
2022-10-11T17:44:23.226Z,17.57
2022-10-11T17:46:50.379Z,17.70
2022-10-11T17:49:17.361Z,17.98
2022-10-11T17:51:44.595Z,17.79
2022-10-11T17:54:13.099Z,17.93
2022-10-11T17:56:41.414Z,18.29
2022-10-11T17:59:14.507Z,18.23
2022-10-11T18:01:41.580Z,18.05
2022-10-11T18:04:13.639Z,17.53
2022-10-11T18:06:40.706Z,17.53
2022-10-11T18:09:07.799Z,17.37
2022-10-11T18:11:35.047Z,17.55
2022-10-11T18:14:01.967Z,18.00
2022-10-11T18:16:30.823Z,17.79
2022-10-11T18:18:58.636Z,18.21
2022-10-11T18:21:31.184Z,18.13
2022-10-11T18:24:02.493Z,18.31
2022-10-11T18:26:30.638Z,18.08
2022-10-11T18:28:58.636Z,17.61
2022-10-11T18:31:29.541Z,17.20
2022-10-11T18:33:57.284Z,17.33
2022-10-11T18:36:27.565Z,17.55
2022-10-11T18:38:56.886Z,17.68
2022-10-11T18:41:30.723Z,17.94
2022-10-11T18:44:00.347Z,17.98
2022-10-11T18:46:28.348Z,17.84
2022-10-11T18:48:56.565Z,17.92
2022-10-11T18:51:29.130Z,18.09
2022-10-11T18:53:58.969Z,17.99
2022-10-11T18:56:27.414Z,18.10
2022-10-11T18:58:56.235Z,18.13
2022-10-11T19:01:32.177Z,18.21
2022-10-11T19:04:01.231Z,17.98
2022-10-11T19:06:34.026Z,17.54
2022-10-11T19:09:00.854Z,17.58
2022-10-11T19:11:28.132Z,17.56
2022-10-11T19:14:00.556Z,17.33
2022-10-11T19:16:29.856Z,17.12
2022-10-11T19:18:57.849Z,16.80
2022-10-11T19:21:25.399Z,16.93
2022-10-11T19:23:52.830Z,16.92
2022-10-11T19:26:21.388Z,17.15
2022-10-11T19:28:48.974Z,16.59
2022-10-11T19:31:17.081Z,16.40
2022-10-11T19:33:45.438Z,16.31
2022-10-11T19:36:16.697Z,16.18
2022-10-11T19:38:46.276Z,16.32
2022-10-11T19:41:14.206Z,16.37
2022-10-11T19:43:41.148Z,16.26
2022-10-11T19:46:10.427Z,16.56
2022-10-11T19:48:39.467Z,16.53
2022-10-11T19:51:09.327Z,16.65
2022-10-11T19:53:36.308Z,17.02
2022-10-11T19:56:09.314Z,17.08
2022-10-11T19:58:37.079Z,17.17
2022-10-11T20:01:07.050Z,17.32
2022-10-11T20:03:34.490Z,17.26
2022-10-11T20:06:03.534Z,16.94
2022-10-11T20:08:31.470Z,16.71
2022-10-11T20:10:59.797Z,17.11
2022-10-11T20:13:31.200Z,17.56
2022-10-11T20:16:10.173Z,17.40
2022-10-11T20:18:38.340Z,17.63
2022-10-11T20:21:12.293Z,17.71
2022-10-11T20:26:15.177Z,17.48
2022-10-11T20:28:43.075Z,17.36
2022-10-11T20:31:18.989Z,17.55
2022-10-11T20:33:47.170Z,17.83
2022-10-11T20:36:16.738Z,17.85
2022-10-11T20:38:45.627Z,18.04
2022-10-11T20:41:15.014Z,18.11
2022-10-11T20:43:42.903Z,17.63
2022-10-11T20:46:12.717Z,17.47
2022-10-11T20:48:43.337Z,17.94
2022-10-11T20:51:11.387Z,18.05
2022-10-11T20:53:39.051Z,18.16
2022-10-11T20:56:10.798Z,18.25
2022-10-11T20:58:37.759Z,17.90
2022-10-11T21:01:16.091Z,17.50
2022-10-11T21:03:44.081Z,17.08
2022-10-11T21:06:11.797Z,16.82
2022-10-11T21:08:39.602Z,16.77
2022-10-11T21:11:07.545Z,16.69
2022-10-11T21:13:34.978Z,16.85
2022-10-11T21:16:12.009Z,16.97
2022-10-11T21:18:39.493Z,16.95
2022-10-11T21:21:11.535Z,16.67
2022-10-11T21:23:38.938Z,16.61
2022-10-11T21:26:08.733Z,16.67
2022-10-11T21:28:36.416Z,16.87
2022-10-11T21:31:08.936Z,17.05
2022-10-11T21:33:36.594Z,17.38
2022-10-11T21:36:08.753Z,17.42
2022-10-11T21:38:36.334Z,17.33
2022-10-11T21:41:08.849Z,16.84
2022-10-11T21:43:38.404Z,16.62
2022-10-11T21:46:18.756Z,16.76
2022-10-11T21:48:46.095Z,17.14
2022-10-11T21:51:24.776Z,17.03
2022-10-11T21:53:52.620Z,17.28
2022-10-11T21:56:20.090Z,16.84
2022-10-11T21:58:48.376Z,16.92
2022-10-11T22:01:16.221Z,16.75
2022-10-11T22:03:43.855Z,16.96
2022-10-11T22:06:11.136Z,17.15
2022-10-11T22:08:38.417Z,17.29
2022-10-11T22:11:05.655Z,17.30
2022-10-11T22:13:34.052Z,17.22
2022-10-11T22:16:06.173Z,17.52
2022-10-11T22:18:33.855Z,17.33
2022-10-11T22:21:09.884Z,17.13
2022-10-11T22:23:36.845Z,16.49
2022-10-11T22:26:12.147Z,16.20
2022-10-11T22:28:39.619Z,16.02
2022-10-11T22:31:07.833Z,16.04
2022-10-11T22:33:35.217Z,15.91
2022-10-11T22:36:04.005Z,15.99
2022-10-11T22:38:31.236Z,16.26
2022-10-11T22:40:58.995Z,16.17
2022-10-11T22:43:25.936Z,15.81
2022-10-11T22:45:52.855Z,16.06
2022-10-11T22:48:19.896Z,16.23
2022-10-11T22:50:47.213Z,16.37
2022-10-11T22:53:14.838Z,16.39
2022-10-11T22:55:42.020Z,16.63
2022-10-11T22:58:09.502Z,16.51
2022-10-11T23:00:37.018Z,16.34
2022-10-11T23:03:04.377Z,16.40
2022-10-11T23:05:31.298Z,16.35
2022-10-11T23:07:58.136Z,16.10
2022-10-11T23:10:25.027Z,15.84
2022-10-11T23:12:52.035Z,16.15
2022-10-11T23:15:19.077Z,15.95
2022-10-11T23:17:46.109Z,16.08
2022-10-11T23:20:13.200Z,15.74
2022-10-11T23:22:40.093Z,15.62
2022-10-11T23:25:07.709Z,15.40
2022-10-11T23:27:34.772Z,15.71
2022-10-11T23:30:01.894Z,16.03
2022-10-11T23:32:28.835Z,16.11
2022-10-11T23:34:55.798Z,16.47
2022-10-11T23:37:22.670Z,16.26
2022-10-11T23:39:49.549Z,16.10
2022-10-11T23:42:16.417Z,16.21
2022-10-11T23:44:43.311Z,16.45
2022-10-11T23:47:10.279Z,16.49
2022-10-11T23:49:37.137Z,16.40
2022-10-11T23:52:04.135Z,16.17
2022-10-11T23:54:31.089Z,16.06
2022-10-11T23:56:57.940Z,16.18
2022-10-11T23:59:24.826Z,15.78
